Time;durP1;ratioP1;P1;durP2;ratioP2;P2;SDS_P1;SDS_P2;PMS_P1;PMS_P2;Temp;Humidity;BMP_temperature;BMP_pressure;BME280_temperature;BME280_humidity;BME280_pressure;Samples;Min_cycle;Max_cycle;Signal;HPM_P1;HPM_P2
2021/06/25 00:01:54;;;;;;;;;;;13.10;99.90;;;;;;5059594;28;19916;-58
2021/06/25 00:04:20;;;;;;;;;;;13.10;99.90;;;;;;5065850;28;19904;-58
2021/06/25 00:06:45;;;;;;;;;;;13.00;99.90;;;;;;5040351;28;19919;-58
2021/06/25 00:09:11;;;;;;;;;;;13.00;99.90;;;;;;5060801;28;19954;-57
2021/06/25 00:11:37;;;;;;;;;;;12.90;99.90;;;;;;5061755;28;20387;-58
2021/06/25 00:14:03;;;;;;;;;;;12.90;99.90;;;;;;5060283;28;19909;-58
2021/06/25 00:16:29;;;;;;;;;;;12.80;99.90;;;;;;5063172;28;19913;-59
2021/06/25 00:18:55;;;;;;;;;;;12.80;99.90;;;;;;5059018;28;20011;-55
2021/06/25 00:21:20;;;;;;;;;;;12.80;99.90;;;;;;5065790;28;20256;-59
2021/06/25 00:23:46;;;;;;;;;;;12.70;99.90;;;;;;5058274;28;19973;-59
2021/06/25 00:26:11;;;;;;;;;;;12.60;99.90;;;;;;5061009;28;19908;-59
2021/06/25 00:28:37;;;;;;;;;;;12.50;99.90;;;;;;5057360;28;20417;-56
2021/06/25 00:31:02;;;;;;;;;;;12.50;99.90;;;;;;5046553;28;19912;-59
2021/06/25 00:33:28;;;;;;;;;;;12.50;99.90;;;;;;5067799;28;19916;-59
2021/06/25 00:35:53;;;;;;;;;;;12.40;99.90;;;;;;5062640;28;19923;-59
2021/06/25 00:38:19;;;;;;;;;;;12.40;99.90;;;;;;5069817;28;19909;-59
2021/06/25 00:40:45;;;;;;;;;;;12.30;99.90;;;;;;5044192;28;20366;-58
2021/06/25 00:43:17;;;;;;;;;;;12.20;99.90;;;;;;5065082;28;19912;-58
2021/06/25 00:45:43;;;;;;;;;;;12.20;99.90;;;;;;5059875;28;19948;-59
2021/06/25 00:48:08;;;;;;;;;;;12.20;99.90;;;;;;5064680;28;19979;-57
2021/06/25 00:50:35;;;;;;;;;;;12.20;99.90;;;;;;5065571;28;19962;-56
2021/06/25 00:53:00;;;;;;;;;;;12.10;99.90;;;;;;5063300;28;20295;-57
2021/06/25 00:55:26;;;;;;;;;;;12.10;99.90;;;;;;5047599;28;19966;-58
2021/06/25 00:57:52;;;;;;;;;;;12.10;99.90;;;;;;5046514;28;19917;-58
2021/06/25 01:00:18;;;;;;;;;;;12.10;99.90;;;;;;5063346;28;19913;-58
2021/06/25 01:02:44;;;;;;;;;;;12.00;99.90;;;;;;5063241;28;19944;-59
2021/06/25 01:05:09;;;;;;;;;;;12.00;99.90;;;;;;5045669;28;19908;-57
2021/06/25 01:07:35;;;;;;;;;;;12.00;99.90;;;;;;5065431;28;19963;-58
2021/06/25 01:10:02;;;;;;;;;;;12.00;99.90;;;;;;5063057;28;20035;-59
2021/06/25 01:12:28;;;;;;;;;;;11.90;99.90;;;;;;5065338;28;20049;-56
2021/06/25 01:14:53;;;;;;;;;;;11.80;99.90;;;;;;5063544;28;19962;-57
2021/06/25 01:17:39;;;;;;;;;;;11.80;99.90;;;;;;5064680;28;19915;-59
2021/06/25 01:20:06;;;;;;;;;;;11.80;99.90;;;;;;5064702;28;20291;-56
2021/06/25 01:22:35;;;;;;;;;;;11.90;99.90;;;;;;5065097;28;19909;-55
2021/06/25 01:25:21;;;;;;;;;;;11.80;99.90;;;;;;5062779;28;19909;-59
2021/06/25 01:27:47;;;;;;;;;;;11.80;99.90;;;;;;5067057;28;19927;-56
2021/06/25 01:30:15;;;;;;;;;;;11.80;99.90;;;;;;5036966;28;20322;-58
2021/06/25 01:32:41;;;;;;;;;;;11.70;99.90;;;;;;5049266;28;19913;-56
2021/06/25 01:35:06;;;;;;;;;;;11.60;99.90;;;;;;5061946;28;19919;-60
2021/06/25 01:37:32;;;;;;;;;;;11.60;99.90;;;;;;5062218;28;19963;-55
2021/06/25 01:39:58;;;;;;;;;;;11.50;99.90;;;;;;5060574;28;19913;-59
2021/06/25 01:42:23;;;;;;;;;;;11.50;99.90;;;;;;5066543;28;19909;-58
2021/06/25 01:44:51;;;;;;;;;;;11.50;99.90;;;;;;5067654;28;19908;-59
2021/06/25 01:47:17;;;;;;;;;;;11.50;99.90;;;;;;5055598;28;19916;-59
2021/06/25 01:49:42;;;;;;;;;;;11.40;99.90;;;;;;5063811;28;20401;-59
2021/06/25 01:52:08;;;;;;;;;;;11.40;99.90;;;;;;5063112;28;20000;-58
2021/06/25 01:54:33;;;;;;;;;;;11.40;99.90;;;;;;5056784;28;19948;-56
2021/06/25 01:56:59;;;;;;;;;;;11.40;99.90;;;;;;5060203;28;20321;-59
2021/06/25 01:59:24;;;;;;;;;;;11.40;99.90;;;;;;5059678;28;19921;-57
2021/06/25 02:01:50;;;;;;;;;;;11.40;99.90;;;;;;5067121;28;20378;-60
2021/06/25 02:04:15;;;;;;;;;;;11.40;99.90;;;;;;5058407;28;19912;-58
2021/06/25 02:06:41;;;;;;;;;;;11.30;99.90;;;;;;5064843;28;20363;-55
2021/06/25 02:09:06;;;;;;;;;;;11.30;99.90;;;;;;5044788;28;19909;-59
2021/06/25 02:11:32;;;;;;;;;;;11.20;99.90;;;;;;5064184;28;19908;-58
2021/06/25 02:13:57;;;;;;;;;;;11.20;99.90;;;;;;5062218;28;19909;-59
2021/06/25 02:16:23;;;;;;;;;;;11.10;99.90;;;;;;5064072;28;19999;-58
2021/06/25 02:18:48;;;;;;;;;;;11.20;99.90;;;;;;5063378;28;20375;-56
2021/06/25 02:21:14;;;;;;;;;;;11.10;99.90;;;;;;5063606;28;19908;-58
2021/06/25 02:23:39;;;;;;;;;;;11.10;99.90;;;;;;5063143;28;19908;-59
2021/06/25 02:26:05;;;;;;;;;;;11.10;99.90;;;;;;5062346;28;19909;-59
2021/06/25 02:28:31;;;;;;;;;;;11.10;99.90;;;;;;5064179;28;20305;-59
2021/06/25 02:30:56;;;;;;;;;;;11.00;99.90;;;;;;5062447;28;19948;-59
2021/06/25 02:33:22;;;;;;;;;;;11.00;99.90;;;;;;5063990;28;20007;-55
2021/06/25 02:35:48;;;;;;;;;;;11.00;99.90;;;;;;5063510;28;19909;-59
2021/06/25 02:38:13;;;;;;;;;;;11.00;99.90;;;;;;5063522;28;19912;-59
2021/06/25 02:40:39;;;;;;;;;;;11.00;99.90;;;;;;5063417;28;19912;-56
2021/06/25 02:43:04;;;;;;;;;;;11.00;99.90;;;;;;5062150;28;20454;-57
2021/06/25 02:45:30;;;;;;;;;;;11.00;99.90;;;;;;5045473;28;19908;-57
2021/06/25 02:47:55;;;;;;;;;;;11.00;99.90;;;;;;5062434;28;19943;-59
2021/06/25 02:50:21;;;;;;;;;;;11.00;99.90;;;;;;5063525;28;19984;-58
2021/06/25 02:52:47;;;;;;;;;;;11.00;99.90;;;;;;5062658;28;19909;-57
2021/06/25 02:55:13;;;;;;;;;;;11.00;99.90;;;;;;5044914;28;19908;-58
2021/06/25 02:57:39;;;;;;;;;;;10.90;99.90;;;;;;5063009;28;20337;-57
2021/06/25 03:00:06;;;;;;;;;;;10.90;99.90;;;;;;5061863;28;19909;-57
2021/06/25 03:02:31;;;;;;;;;;;10.90;99.90;;;;;;5063222;28;19984;-56
2021/06/25 03:04:57;;;;;;;;;;;11.00;99.90;;;;;;5059524;28;19955;-57
2021/06/25 03:07:22;;;;;;;;;;;11.00;99.90;;;;;;5062933;28;19982;-57
2021/06/25 03:09:48;;;;;;;;;;;10.90;99.90;;;;;;5061585;28;19995;-58
2021/06/25 03:12:13;;;;;;;;;;;10.90;99.90;;;;;;5062880;28;19909;-56
2021/06/25 03:14:41;;;;;;;;;;;11.00;99.90;;;;;;5062899;28;19921;-56
2021/06/25 03:17:06;;;;;;;;;;;11.00;99.90;;;;;;5062012;28;19912;-57
2021/06/25 03:19:32;;;;;;;;;;;10.90;99.90;;;;;;5062895;28;19916;-58
2021/06/25 03:21:57;;;;;;;;;;;10.90;99.90;;;;;;5060121;28;19916;-56
2021/06/25 03:24:23;;;;;;;;;;;11.00;99.90;;;;;;5062651;28;20441;-55
2021/06/25 03:26:48;;;;;;;;;;;10.90;99.90;;;;;;5061403;28;19908;-57
2021/06/25 03:29:14;;;;;;;;;;;10.90;99.90;;;;;;5062836;28;19908;-56
2021/06/25 03:31:39;;;;;;;;;;;11.00;99.90;;;;;;5062713;28;19915;-55
2021/06/25 03:34:05;;;;;;;;;;;11.00;99.90;;;;;;5043502;28;19909;-58
2021/06/25 03:36:30;;;;;;;;;;;11.00;99.90;;;;;;5062156;28;19908;-58
2021/06/25 03:38:56;;;;;;;;;;;10.90;99.90;;;;;;5059940;28;19926;-58
2021/06/25 03:41:22;;;;;;;;;;;10.90;99.90;;;;;;5062424;28;19908;-58
2021/06/25 03:43:47;;;;;;;;;;;10.90;99.90;;;;;;5061216;28;19915;-57
2021/06/25 03:46:13;;;;;;;;;;;10.90;99.90;;;;;;5061714;28;19962;-57
2021/06/25 03:48:38;;;;;;;;;;;10.90;99.90;;;;;;5062331;28;19954;-58
2021/06/25 03:51:04;;;;;;;;;;;10.90;99.90;;;;;;5060885;28;19916;-58
2021/06/25 03:53:29;;;;;;;;;;;10.90;99.90;;;;;;5062369;28;19909;-56
2021/06/25 03:56:11;;;;;;;;;;;11.00;99.90;;;;;;5060144;28;20298;-56
2021/06/25 03:58:40;;;;;;;;;;;10.90;99.90;;;;;;5062247;28;19920;-58
2021/06/25 04:01:06;;;;;;;;;;;11.00;99.90;;;;;;5060494;28;19960;-58
2021/06/25 04:03:32;;;;;;;;;;;11.00;99.90;;;;;;5056270;28;20021;-57
2021/06/25 04:05:58;;;;;;;;;;;11.00;99.90;;;;;;5064519;28;19909;-57
2021/06/25 04:08:26;;;;;;;;;;;11.10;99.90;;;;;;5058209;28;19919;-59
2021/06/25 04:10:51;;;;;;;;;;;11.10;99.90;;;;;;5065481;28;19970;-59
2021/06/25 04:13:17;;;;;;;;;;;11.20;99.90;;;;;;5058135;28;20368;-58
2021/06/25 04:15:42;;;;;;;;;;;11.20;99.90;;;;;;5065086;28;19948;-59
2021/06/25 04:18:08;;;;;;;;;;;11.30;99.90;;;;;;5059423;28;20393;-58
2021/06/25 04:20:33;;;;;;;;;;;11.30;99.90;;;;;;5058522;28;19908;-59
2021/06/25 04:22:59;;;;;;;;;;;11.40;99.90;;;;;;5064418;28;19909;-55
2021/06/25 04:25:25;;;;;;;;;;;11.40;99.90;;;;;;5058488;28;20030;-56
2021/06/25 04:27:51;;;;;;;;;;;11.40;99.90;;;;;;5065512;28;19926;-59
2021/06/25 04:30:17;;;;;;;;;;;11.50;99.90;;;;;;5058420;28;19999;-58
2021/06/25 04:32:43;;;;;;;;;;;11.50;99.90;;;;;;5065108;28;20428;-57
2021/06/25 04:35:09;;;;;;;;;;;11.60;99.90;;;;;;5058982;28;19909;-55
2021/06/25 04:37:34;;;;;;;;;;;11.60;99.90;;;;;;5058149;28;20393;-58
2021/06/25 04:40:00;;;;;;;;;;;11.70;99.90;;;;;;5064582;28;19908;-57
2021/06/25 04:42:26;;;;;;;;;;;11.70;99.90;;;;;;5058073;28;19920;-56
2021/06/25 04:44:51;;;;;;;;;;;11.70;99.90;;;;;;5065121;28;19908;-57
2021/06/25 04:47:17;;;;;;;;;;;11.80;99.90;;;;;;5062258;28;19928;-57
2021/06/25 04:49:43;;;;;;;;;;;11.80;99.90;;;;;;5065056;28;19908;-58
2021/06/25 04:52:09;;;;;;;;;;;11.90;99.90;;;;;;5059200;28;19915;-55
2021/06/25 04:54:34;;;;;;;;;;;11.90;99.90;;;;;;5057972;28;20000;-59
2021/06/25 04:57:00;;;;;;;;;;;12.00;99.90;;;;;;5064497;28;20420;-59
2021/06/25 04:59:27;;;;;;;;;;;12.10;99.90;;;;;;5057719;28;19920;-59
2021/06/25 05:01:52;;;;;;;;;;;12.10;99.90;;;;;;5046614;28;20405;-59
2021/06/25 05:04:18;;;;;;;;;;;12.10;99.90;;;;;;5053787;28;19908;-58
2021/06/25 05:06:43;;;;;;;;;;;12.20;99.90;;;;;;5059665;28;19917;-58
2021/06/25 05:09:09;;;;;;;;;;;12.30;99.90;;;;;;5042791;28;19913;-57
2021/06/25 05:11:34;;;;;;;;;;;12.30;99.90;;;;;;5062172;28;19927;-56
2021/06/25 05:14:00;;;;;;;;;;;12.40;99.90;;;;;;5041313;28;20341;-57
2021/06/25 05:16:25;;;;;;;;;;;12.40;99.90;;;;;;5067123;28;19917;-58
2021/06/25 05:18:51;;;;;;;;;;;12.50;99.90;;;;;;5062278;28;20403;-59
2021/06/25 05:21:17;;;;;;;;;;;12.50;99.90;;;;;;5065205;28;19970;-60
2021/06/25 05:23:42;;;;;;;;;;;12.60;99.90;;;;;;5063880;28;19913;-59
2021/06/25 05:26:08;;;;;;;;;;;12.70;99.90;;;;;;5064288;28;19908;-60
2021/06/25 05:28:33;;;;;;;;;;;12.80;99.90;;;;;;5065747;28;20015;-58
2021/06/25 05:30:59;;;;;;;;;;;12.90;99.90;;;;;;5062710;28;20329;-59
2021/06/25 05:33:24;;;;;;;;;;;13.00;99.90;;;;;;5049936;28;20483;-60
2021/06/25 05:35:50;;;;;;;;;;;13.10;99.90;;;;;;5061181;28;19909;-60
2021/06/25 05:38:17;;;;;;;;;;;13.20;99.90;;;;;;5065076;28;20451;-59
2021/06/25 05:40:42;;;;;;;;;;;13.30;99.90;;;;;;5063704;28;20003;-60
2021/06/25 05:43:08;;;;;;;;;;;13.40;99.90;;;;;;5063988;28;19994;-59
2021/06/25 05:45:34;;;;;;;;;;;13.50;99.90;;;;;;5065384;28;20003;-58
2021/06/25 05:48:00;;;;;;;;;;;13.60;99.90;;;;;;5062857;28;19991;-60
2021/06/25 05:50:26;;;;;;;;;;;13.80;99.90;;;;;;5051121;28;20019;-59
2021/06/25 05:52:51;;;;;;;;;;;14.00;99.90;;;;;;5061490;28;20367;-59
2021/06/25 05:55:17;;;;;;;;;;;14.10;99.90;;;;;;5065143;28;20359;-60
2021/06/25 05:57:43;;;;;;;;;;;14.20;99.90;;;;;;5063310;28;20005;-60
2021/06/25 06:00:09;;;;;;;;;;;14.40;99.90;;;;;;5063647;28;20363;-59
2021/06/25 06:02:35;;;;;;;;;;;14.50;99.90;;;;;;5065332;28;20003;-58
2021/06/25 06:05:00;;;;;;;;;;;14.60;99.90;;;;;;5059967;28;19956;-58
2021/06/25 06:07:26;;;;;;;;;;;14.70;99.90;;;;;;5064286;28;19924;-61
2021/06/25 06:09:52;;;;;;;;;;;15.00;99.90;;;;;;5062865;28;19961;-64
2021/06/25 06:12:18;;;;;;;;;;;15.10;99.90;;;;;;5050755;28;19909;-61
2021/06/25 06:14:44;;;;;;;;;;;15.40;99.90;;;;;;5047997;28;20267;-57
2021/06/25 06:17:09;;;;;;;;;;;15.50;99.90;;;;;;5063537;28;19980;-61
2021/06/25 06:19:43;;;;;;;;;;;15.80;99.90;;;;;;5064011;28;20306;-58
2021/06/25 06:33:11;;;;;;;;;;;16.70;99.90;;;;;;5068201;28;19919;-60
2021/06/25 06:35:37;;;;;;;;;;;16.80;99.90;;;;;;5059842;28;20391;-61
2021/06/25 06:38:04;;;;;;;;;;;16.90;99.90;;;;;;5062145;28;19912;-62
2021/06/25 06:40:30;;;;;;;;;;;17.10;99.90;;;;;;5064233;28;19909;-63
2021/06/25 06:42:56;;;;;;;;;;;17.20;99.90;;;;;;5061257;28;20398;-62
2021/06/25 06:45:22;;;;;;;;;;;17.40;99.90;;;;;;5047977;28;19909;-61
2021/06/25 06:47:47;;;;;;;;;;;17.50;99.90;;;;;;5056374;28;19913;-61
2021/06/25 06:50:13;;;;;;;;;;;17.60;99.90;;;;;;5067929;28;19909;-61
2021/06/25 06:52:43;;;;;;;;;;;17.80;99.90;;;;;;5059974;28;20350;-61
2021/06/25 06:55:10;;;;;;;;;;;18.00;99.90;;;;;;5062997;28;19909;-62
2021/06/25 06:57:35;;;;;;;;;;;18.10;99.90;;;;;;5063154;28;20023;-61
2021/06/25 07:00:01;;;;;;;;;;;18.20;99.90;;;;;;5061366;28;20345;-61
2021/06/25 07:02:26;;;;;;;;;;;18.30;99.90;;;;;;5065026;28;19912;-60
2021/06/25 07:04:52;;;;;;;;;;;18.30;99.90;;;;;;5057202;28;19908;-61
2021/06/25 07:07:17;;;;;;;;;;;18.50;99.90;;;;;;5058667;28;20003;-62
2021/06/25 07:09:43;;;;;;;;;;;18.60;99.90;;;;;;5044448;28;19958;-61
2021/06/25 07:12:08;;;;;;;;;;;18.70;99.90;;;;;;5062265;28;20363;-62
2021/06/25 07:14:34;;;;;;;;;;;18.80;99.90;;;;;;5062838;28;19916;-59
2021/06/25 07:17:01;;;;;;;;;;;18.90;99.90;;;;;;5044584;28;19963;-61
2021/06/25 07:19:26;;;;;;;;;;;18.90;99.90;;;;;;5045002;28;19919;-61
2021/06/25 07:21:52;;;;;;;;;;;19.10;99.90;;;;;;5060803;28;19909;-61
2021/06/25 07:24:17;;;;;;;;;;;19.20;99.90;;;;;;5063181;28;19909;-62
2021/06/25 07:26:43;;;;;;;;;;;19.40;99.90;;;;;;5062261;28;19915;-61
2021/06/25 07:29:09;;;;;;;;;;;19.50;99.90;;;;;;5061824;28;19928;-61
2021/06/25 07:31:35;;;;;;;;;;;19.40;98.60;;;;;;5062762;28;20003;-62
2021/06/25 07:34:00;;;;;;;;;;;19.60;99.30;;;;;;5043793;28;20347;-62
2021/06/25 07:36:26;;;;;;;;;;;19.80;99.90;;;;;;5062265;28;19993;-61
2021/06/25 07:38:51;;;;;;;;;;;19.90;97.40;;;;;;5041878;28;19931;-62
2021/06/25 07:41:17;;;;;;;;;;;20.10;97.40;;;;;;5062708;28;19962;-62
2021/06/25 07:43:42;;;;;;;;;;;20.10;97.00;;;;;;5062328;28;20283;-62
2021/06/25 07:46:08;;;;;;;;;;;20.30;99.60;;;;;;5057939;28;19909;-64
2021/06/25 07:48:33;;;;;;;;;;;20.50;96.60;;;;;;5062330;28;20458;-63
2021/06/25 07:50:59;;;;;;;;;;;20.40;98.60;;;;;;5061658;28;19909;-61
2021/06/25 07:53:24;;;;;;;;;;;20.40;97.90;;;;;;5062961;28;19952;-60
2021/06/25 07:55:49;;;;;;;;;;;20.30;97.30;;;;;;5060626;28;20468;-62
2021/06/25 07:58:16;;;;;;;;;;;20.40;97.90;;;;;;5062424;28;19999;-62
2021/06/25 08:00:41;;;;;;;;;;;20.60;98.40;;;;;;5055071;28;19913;-62
2021/06/25 08:03:07;;;;;;;;;;;20.80;96.70;;;;;;5058659;28;19908;-62
2021/06/25 08:05:32;;;;;;;;;;;20.80;96.30;;;;;;5062617;28;19991;-60
2021/06/25 08:07:58;;;;;;;;;;;20.90;95.60;;;;;;5060999;28;19913;-63
2021/06/25 08:10:23;;;;;;;;;;;21.00;97.00;;;;;;5043400;28;19908;-61
2021/06/25 08:12:49;;;;;;;;;;;21.00;97.00;;;;;;5062346;28;20343;-62
2021/06/25 08:15:14;;;;;;;;;;;20.60;96.60;;;;;;5061101;28;19915;-61
2021/06/25 08:17:40;;;;;;;;;;;20.60;99.40;;;;;;5062119;28;20329;-60
2021/06/25 08:20:06;;;;;;;;;;;20.70;97.70;;;;;;5059677;28;19916;-60
2021/06/25 08:22:31;;;;;;;;;;;20.80;99.00;;;;;;5062466;28;20394;-61
2021/06/25 08:24:57;;;;;;;;;;;20.80;96.60;;;;;;5061033;28;20402;-64
2021/06/25 08:27:23;;;;;;;;;;;21.10;97.20;;;;;;5036922;28;19958;-60
2021/06/25 08:29:48;;;;;;;;;;;21.20;96.50;;;;;;5061966;28;19948;-62
2021/06/25 08:32:13;;;;;;;;;;;21.20;95.80;;;;;;5061009;28;19938;-60
2021/06/25 08:34:39;;;;;;;;;;;21.10;94.70;;;;;;5061577;28;19916;-61
2021/06/25 08:37:05;;;;;;;;;;;21.10;97.70;;;;;;5059667;28;19916;-60
2021/06/25 08:39:30;;;;;;;;;;;21.30;96.50;;;;;;5043853;28;19908;-61
2021/06/25 08:42:01;;;;;;;;;;;21.00;94.30;;;;;;5061165;28;20325;-61
2021/06/25 08:44:27;;;;;;;;;;;21.30;97.10;;;;;;5055605;28;19912;-63
2021/06/25 08:46:52;;;;;;;;;;;21.50;94.80;;;;;;5061216;28;19908;-60
2021/06/25 08:49:18;;;;;;;;;;;21.60;94.00;;;;;;5061610;28;19913;-63
2021/06/25 08:51:46;;;;;;;;;;;21.90;97.50;;;;;;5065910;28;19916;-62
2021/06/25 08:54:11;;;;;;;;;;;22.30;95.40;;;;;;5062651;28;20375;-63
2021/06/25 08:56:37;;;;;;;;;;;22.30;94.60;;;;;;5066590;28;19916;-59
2021/06/25 08:59:02;;;;;;;;;;;22.20;95.70;;;;;;5063580;28;19916;-62
2021/06/25 09:01:33;;;;;;;;;;;22.30;94.10;;;;;;5065991;28;19912;-62
2021/06/25 09:03:58;;;;;;;;;;;22.30;93.30;;;;;;5057453;28;19909;-59
2021/06/25 09:06:25;;;;;;;;;;;22.30;92.20;;;;;;5066404;28;20295;-60
2021/06/25 09:08:51;;;;;;;;;;;22.10;95.30;;;;;;5062039;28;19913;-62
2021/06/25 09:11:18;;;;;;;;;;;22.40;95.20;;;;;;5068394;28;20003;-63
2021/06/25 09:13:44;;;;;;;;;;;22.50;93.40;;;;;;5061793;28;19949;-61
2021/06/25 09:16:23;;;;;;;;;;;22.50;92.90;;;;;;5069047;28;19967;-60
2021/06/25 09:19:14;;;;;;;;;;;22.70;91.30;;;;;;5061744;28;20486;-60
2021/06/25 09:21:41;;;;;;;;;;;23.00;94.50;;;;;;5051029;28;20294;-60
2021/06/25 09:24:16;;;;;;;;;;;23.20;92.00;;;;;;5064274;28;20429;-61
2021/06/25 09:26:42;;;;;;;;;;;23.00;92.10;;;;;;5046441;28;20438;-62
2021/06/25 09:29:10;;;;;;;;;;;22.90;92.00;;;;;;5064067;28;20008;-61
2021/06/25 09:31:35;;;;;;;;;;;22.80;91.70;;;;;;5064990;28;19962;-63
2021/06/25 09:34:01;;;;;;;;;;;22.70;91.90;;;;;;5064138;28;19909;-64
2021/06/25 09:36:27;;;;;;;;;;;22.80;91.10;;;;;;5064609;28;19932;-62
2021/06/25 09:38:59;;;;;;;;;;;22.90;90.30;;;;;;5062184;28;19909;-60
2021/06/25 09:41:25;;;;;;;;;;;22.90;91.40;;;;;;5064815;28;19908;-61
2021/06/25 09:43:53;;;;;;;;;;;22.80;92.30;;;;;;5063286;28;19952;-62
2021/06/25 09:46:25;;;;;;;;;;;22.80;92.80;;;;;;5064677;28;19909;-61
2021/06/25 09:48:52;;;;;;;;;;;22.80;92.30;;;;;;5056531;28;19999;-63
2021/06/25 09:51:17;;;;;;;;;;;22.60;91.10;;;;;;5064752;28;19909;-62
2021/06/25 09:54:02;;;;;;;;;;;22.50;90.80;;;;;;5047098;28;19915;-60
2021/06/25 09:56:27;;;;;;;;;;;22.30;92.00;;;;;;5058007;28;19991;-62
2021/06/25 09:59:21;;;;;;;;;;;22.30;93.40;;;;;;5063722;28;19948;-57
2021/06/25 10:01:47;;;;;;;;;;;22.60;91.30;;;;;;5063713;28;19944;-60
2021/06/25 10:04:12;;;;;;;;;;;22.50;91.20;;;;;;5056491;28;19916;-61
2021/06/25 10:06:38;;;;;;;;;;;22.40;90.30;;;;;;5063444;28;19909;-64
2021/06/25 10:09:04;;;;;;;;;;;22.40;89.90;;;;;;5062767;28;19927;-61
2021/06/25 10:11:30;;;;;;;;;;;22.20;91.70;;;;;;5065625;28;19912;-62
2021/06/25 10:13:57;;;;;;;;;;;22.20;91.20;;;;;;5062171;28;20086;-60
2021/06/25 10:16:23;;;;;;;;;;;22.00;91.80;;;;;;5067070;28;19909;-61
2021/06/25 10:18:53;;;;;;;;;;;21.70;93.20;;;;;;5042960;28;19915;-64
2021/06/25 10:21:19;;;;;;;;;;;21.80;92.30;;;;;;5049292;28;19915;-63
2021/06/25 10:23:46;;;;;;;;;;;21.90;93.40;;;;;;5062559;28;19912;-61
2021/06/25 10:26:12;;;;;;;;;;;22.00;92.10;;;;;;5063424;28;19912;-61
2021/06/25 10:28:39;;;;;;;;;;;22.20;92.20;;;;;;5064054;28;19913;-61
2021/06/25 10:31:05;;;;;;;;;;;22.20;91.40;;;;;;5062455;28;19916;-62
2021/06/25 10:33:31;;;;;;;;;;;22.20;90.90;;;;;;5066542;28;19908;-61
2021/06/25 10:35:58;;;;;;;;;;;22.40;91.20;;;;;;5061106;28;19958;-61
2021/06/25 10:38:27;;;;;;;;;;;22.40;92.10;;;;;;5064042;28;19955;-60
2021/06/25 10:40:58;;;;;;;;;;;22.70;91.80;;;;;;5061395;28;19909;-61
2021/06/25 10:43:50;;;;;;;;;;;23.10;91.00;;;;;;5063773;28;20525;-62
2021/06/25 10:46:34;;;;;;;;;;;23.40;88.60;;;;;;5058824;28;20556;-60
2021/06/25 10:49:01;;;;;;;;;;;23.40;91.10;;;;;;5063093;28;19912;-62
2021/06/25 10:51:28;;;;;;;;;;;23.40;87.90;;;;;;5063669;28;19913;-62
2021/06/25 10:54:13;;;;;;;;;;;23.00;88.80;;;;;;5062984;28;19908;-62
2021/06/25 10:57:02;;;;;;;;;;;23.00;91.30;;;;;;5046634;28;19909;-60
2021/06/25 10:59:29;;;;;;;;;;;23.00;89.80;;;;;;5048608;28;19916;-64
2021/06/25 11:01:59;;;;;;;;;;;23.10;89.20;;;;;;5066909;28;19909;-62
2021/06/25 11:04:30;;;;;;;;;;;23.00;90.60;;;;;;5056060;28;19909;-62
2021/06/25 11:06:56;;;;;;;;;;;23.00;90.40;;;;;;5060701;28;19991;-59
2021/06/25 11:09:22;;;;;;;;;;;22.70;90.00;;;;;;5063201;28;20011;-61
2021/06/25 11:11:48;;;;;;;;;;;22.70;90.70;;;;;;5061891;28;20367;-58
2021/06/25 11:14:26;;;;;;;;;;;22.70;89.80;;;;;;5062073;28;19915;-62
2021/06/25 11:16:52;;;;;;;;;;;22.80;90.20;;;;;;5062178;28;19916;-62
2021/06/25 11:19:34;;;;;;;;;;;23.20;91.70;;;;;;5063060;28;19909;-60
2021/06/25 11:21:59;;;;;;;;;;;23.50;87.50;;;;;;5060664;28;19909;-61
2021/06/25 11:24:43;;;;;;;;;;;23.60;84.50;;;;;;5062796;28;20413;-64
2021/06/25 11:27:09;;;;;;;;;;;23.30;88.00;;;;;;5061086;28;19909;-59
2021/06/25 11:29:45;;;;;;;;;;;23.00;87.10;;;;;;5062733;28;19915;-60
2021/06/25 11:32:12;;;;;;;;;;;22.90;89.00;;;;;;5061909;28;20330;-63
2021/06/25 11:34:38;;;;;;;;;;;23.00;91.10;;;;;;5062546;28;20384;-61
2021/06/25 11:37:03;;;;;;;;;;;23.10;88.40;;;;;;5042576;28;19995;-58
2021/06/25 11:39:38;;;;;;;;;;;23.40;85.00;;;;;;5062493;28;20325;-61
2021/06/25 11:42:08;;;;;;;;;;;23.70;87.80;;;;;;5060515;28;20260;-62
2021/06/25 11:44:37;;;;;;;;;;;24.00;88.10;;;;;;5063743;28;19909;-61
2021/06/25 11:47:08;;;;;;;;;;;24.20;88.60;;;;;;5060817;28;20297;-61
2021/06/25 11:49:38;;;;;;;;;;;24.30;79.00;;;;;;5059344;28;19962;-63
2021/06/25 11:52:04;;;;;;;;;;;24.50;81.10;;;;;;5060325;28;19912;-62
2021/06/25 11:54:30;;;;;;;;;;;24.60;82.50;;;;;;5058564;28;19917;-63
2021/06/25 11:56:55;;;;;;;;;;;24.90;84.50;;;;;;5065036;28;20286;-61
2021/06/25 11:59:21;;;;;;;;;;;25.20;84.00;;;;;;5058359;28;19924;-61
2021/06/25 12:01:54;;;;;;;;;;;25.10;79.30;;;;;;5065519;28;20359;-60
2021/06/25 12:04:35;;;;;;;;;;;24.80;77.00;;;;;;5050792;28;19951;-62
2021/06/25 12:07:01;;;;;;;;;;;25.00;77.30;;;;;;5058373;28;19951;-59
2021/06/25 12:09:40;;;;;;;;;;;25.00;75.30;;;;;;5062202;28;19951;-62
2021/06/25 12:12:06;;;;;;;;;;;25.00;77.30;;;;;;5041633;28;19909;-62
2021/06/25 12:14:41;;;;;;;;;;;25.10;78.80;;;;;;5061904;28;19954;-60
2021/06/25 12:17:07;;;;;;;;;;;24.90;74.10;;;;;;5061341;28;20321;-62
2021/06/25 12:19:32;;;;;;;;;;;25.00;74.30;;;;;;5044355;28;19919;-60
2021/06/25 12:22:03;;;;;;;;;;;25.20;77.20;;;;;;5059699;28;19920;-62
2021/06/25 12:24:29;;;;;;;;;;;25.40;77.80;;;;;;5060839;28;20000;-59
2021/06/25 12:26:54;;;;;;;;;;;25.50;73.90;;;;;;5060055;28;19999;-64
2021/06/25 12:29:23;;;;;;;;;;;25.40;72.00;;;;;;5043896;28;20375;-62
2021/06/25 12:31:49;;;;;;;;;;;25.20;69.90;;;;;;5043505;28;19908;-64
2021/06/25 12:34:16;;;;;;;;;;;24.90;68.80;;;;;;5060827;28;20066;-61
2021/06/25 12:36:42;;;;;;;;;;;24.70;72.80;;;;;;5059187;28;20290;-61
2021/06/25 12:39:09;;;;;;;;;;;25.00;72.20;;;;;;5057214;28;19909;-61
2021/06/25 12:41:44;;;;;;;;;;;25.20;68.00;;;;;;5061384;28;20109;-62
2021/06/25 12:44:10;;;;;;;;;;;25.00;66.60;;;;;;5060256;28;19928;-60
2021/06/25 12:46:36;;;;;;;;;;;25.30;71.70;;;;;;5048457;28;19954;-60
2021/06/25 12:49:03;;;;;;;;;;;25.40;68.80;;;;;;5061335;28;20336;-63
2021/06/25 12:51:33;;;;;;;;;;;25.50;70.80;;;;;;5049053;28;19909;-64
2021/06/25 12:53:58;;;;;;;;;;;25.60;66.70;;;;;;5060481;28;19962;-61
2021/06/25 12:56:24;;;;;;;;;;;25.10;67.90;;;;;;5060748;28;19912;-61
2021/06/25 12:58:52;;;;;;;;;;;25.20;67.80;;;;;;5061351;28;19916;-63
2021/06/25 13:01:18;;;;;;;;;;;25.40;69.60;;;;;;5060799;28;19952;-60
2021/06/25 13:03:45;;;;;;;;;;;25.50;64.70;;;;;;5054089;28;19955;-61
2021/06/25 13:06:23;;;;;;;;;;;25.60;66.40;;;;;;5063740;28;20581;-63
2021/06/25 13:08:48;;;;;;;;;;;25.60;64.70;;;;;;5054333;28;19913;-61
2021/06/25 13:11:22;;;;;;;;;;;25.70;66.00;;;;;;5064979;28;20445;-61
2021/06/25 13:13:48;;;;;;;;;;;25.50;66.70;;;;;;5054386;28;19916;-60
2021/06/25 13:16:18;;;;;;;;;;;25.40;64.70;;;;;;5065647;28;19916;-62
2021/06/25 13:18:44;;;;;;;;;;;25.40;65.30;;;;;;5058158;28;20083;-61
2021/06/25 13:21:33;;;;;;;;;;;25.10;66.00;;;;;;5060822;28;19917;-62
2021/06/25 13:24:10;;;;;;;;;;;25.00;67.20;;;;;;5044163;28;19916;-60
2021/06/25 13:26:47;;;;;;;;;;;25.00;64.90;;;;;;5061142;28;19923;-61
2021/06/25 13:29:12;;;;;;;;;;;25.20;67.10;;;;;;5060544;28;19912;-62
2021/06/25 13:32:01;;;;;;;;;;;25.20;66.50;;;;;;5061423;28;19997;-60
2021/06/25 13:34:26;;;;;;;;;;;25.00;63.70;;;;;;5061182;28;19947;-58
2021/06/25 13:37:02;;;;;;;;;;;24.90;64.90;;;;;;5045202;28;19959;-60
2021/06/25 13:39:29;;;;;;;;;;;24.50;67.50;;;;;;5046627;28;19923;-61
2021/06/25 13:41:56;;;;;;;;;;;24.30;64.40;;;;;;5064304;28;19915;-59
2021/06/25 13:44:25;;;;;;;;;;;24.20;66.30;;;;;;5064463;28;19908;-61
2021/06/25 13:46:52;;;;;;;;;;;24.40;65.20;;;;;;5064745;28;20002;-59
2021/06/25 13:49:21;;;;;;;;;;;24.10;66.20;;;;;;5064573;28;19919;-60
2021/06/25 13:51:46;;;;;;;;;;;24.50;67.50;;;;;;5064375;28;20425;-61
2021/06/25 13:54:16;;;;;;;;;;;24.70;67.10;;;;;;5061519;28;19973;-60
2021/06/25 13:56:41;;;;;;;;;;;25.10;70.30;;;;;;5066047;28;20286;-61
2021/06/25 13:59:09;;;;;;;;;;;25.30;68.10;;;;;;5061628;28;19924;-59
2021/06/25 14:01:35;;;;;;;;;;;25.40;67.10;;;;;;5065876;28;19915;-60
2021/06/25 14:04:07;;;;;;;;;;;25.60;67.60;;;;;;5056101;28;19909;-59
2021/06/25 14:06:33;;;;;;;;;;;25.80;67.80;;;;;;5064037;28;19909;-61
2021/06/25 14:08:59;;;;;;;;;;;26.00;66.00;;;;;;5061881;28;19934;-59
2021/06/25 14:11:37;;;;;;;;;;;26.00;65.00;;;;;;5048257;28;19909;-58
2021/06/25 14:14:07;;;;;;;;;;;26.00;63.10;;;;;;5045009;28;19955;-60
2021/06/25 14:16:33;;;;;;;;;;;25.60;63.10;;;;;;5066016;28;19909;-61
2021/06/25 14:19:01;;;;;;;;;;;25.40;62.40;;;;;;5062047;28;20007;-61
2021/06/25 14:21:34;;;;;;;;;;;25.60;64.00;;;;;;5064354;28;19935;-58
2021/06/25 14:24:00;;;;;;;;;;;25.60;65.00;;;;;;5042084;28;20394;-63
2021/06/25 14:26:27;;;;;;;;;;;25.60;63.20;;;;;;5063852;28;19909;-61
2021/06/25 14:28:53;;;;;;;;;;;25.40;64.60;;;;;;5062279;28;19920;-61